EDLP/PAD METAR and TAF weather

Enter ICAO airport designator
Station Type Date Time Source
EDLP METAR 2022/01/19 20:20 UTC NOAA

EDLP 192020Z 26010KT 230V040 9999 -RA OVC006 03/02 Q1018


Station Type Date Time Source
EDLP Decoded METAR 2022/01/19 20:20 UTC NOAA

Paderborn / Lippstadt, Germany (EDLP) 51-37N 008-37E
Jan 19, 2022 - 03:20 PM EST / 2022.01.19 2020 UTC
Wind: from the W (260 degrees) at 12 MPH (10 KT) (direction variable):0
Visibility: greater than 7 mile(s):0
Sky conditions: overcast
Weather: light rain
Temperature: 37 F (3 C)
Dew Point: 35 F (2 C)
Relative Humidity: 93%
Pressure (altimeter): 30.06 in. Hg (1018 hPa)
ob: EDLP 192020Z 26010KT 230V040 9999 -RA OVC006 03/02 Q1018
cycle: 20

Station Type Date Time Source
EDLP TAF 2022/01/19 18:37 UTC NOAA

TAF EDLP 191700Z 1918/2018 23012KT 9999 BKN015
TEMPO 1918/2002 2500 -RADZ BKN008 PROB30
TEMPO 1918/2002 RADZ
BECMG 1920/1923 29010KT PROB30
TEMPO 2003/2018 2500 -SHRASN BKN004TCU PROB30
TEMPO 2011/2015 31015G25KT

Example: see airport list